createdAt,value
2022-09-12T00:00:26.066Z,15.64
2022-09-12T00:02:54.701Z,15.56
2022-09-12T00:05:22.782Z,15.62
2022-09-12T00:07:50.850Z,15.52
2022-09-12T00:10:19.385Z,15.42
2022-09-12T00:12:47.178Z,15.37
2022-09-12T00:15:16.273Z,15.33
2022-09-12T00:17:44.021Z,15.49
2022-09-12T00:20:12.647Z,15.28
2022-09-12T00:22:40.480Z,15.26
2022-09-12T00:25:08.941Z,15.30
2022-09-12T00:27:36.656Z,15.41
2022-09-12T00:30:05.077Z,15.20
2022-09-12T00:32:35.137Z,15.08
2022-09-12T00:35:03.265Z,15.08
2022-09-12T00:37:31.233Z,15.09
2022-09-12T00:39:59.064Z,15.16
2022-09-12T00:42:26.878Z,15.23
2022-09-12T00:44:54.757Z,15.17
2022-09-12T00:47:25.444Z,15.15
2022-09-12T00:49:57.025Z,15.25
2022-09-12T00:52:28.645Z,15.16
2022-09-12T00:55:00.878Z,14.98
2022-09-12T00:57:31.716Z,15.12
2022-09-12T01:00:03.794Z,15.24
2022-09-12T01:02:31.618Z,15.28
2022-09-12T01:05:01.167Z,15.37
2022-09-12T01:07:29.390Z,15.43
2022-09-12T01:09:57.152Z,15.52
2022-09-12T01:12:25.137Z,15.60
2022-09-12T01:14:52.952Z,15.65
2022-09-12T01:17:20.741Z,15.61
2022-09-12T01:20:18.863Z,15.64
2022-09-12T01:23:10.794Z,15.68
2022-09-12T01:25:45.471Z,15.60
2022-09-12T01:28:49.868Z,15.67
2022-09-12T01:31:22.696Z,15.74
2022-09-12T01:33:59.456Z,15.72
2022-09-12T01:36:34.909Z,15.80
2022-09-12T01:39:06.025Z,15.88
2022-09-12T01:41:42.751Z,15.88
2022-09-12T01:44:14.936Z,15.90
2022-09-12T01:46:48.191Z,15.74
2022-09-12T01:49:19.238Z,15.70
2022-09-12T01:51:54.645Z,15.54
2022-09-12T01:54:26.075Z,15.35
2022-09-12T01:56:56.476Z,15.20
2022-09-12T01:59:26.839Z,15.18
2022-09-12T02:01:59.998Z,15.06
2022-09-12T02:04:34.114Z,15.01
2022-09-12T02:07:05.222Z,14.89
2022-09-12T02:09:37.456Z,15.02
2022-09-12T02:12:06.765Z,15.16
2022-09-12T02:14:38.145Z,14.90
2022-09-12T02:17:08.766Z,14.80
2022-09-12T02:19:40.640Z,14.90
2022-09-12T02:22:10.125Z,14.89
2022-09-12T02:24:41.173Z,14.87
2022-09-12T02:27:12.169Z,14.84
2022-09-12T02:29:39.921Z,14.76
2022-09-12T02:32:13.957Z,14.74
2022-09-12T02:34:49.475Z,14.93
2022-09-12T02:37:26.109Z,14.92
2022-09-12T02:39:55.373Z,14.74
2022-09-12T02:42:23.368Z,14.58
2022-09-12T02:44:51.636Z,14.59
2022-09-12T02:47:24.256Z,14.52
2022-09-12T02:49:52.751Z,14.63
2022-09-12T02:52:21.033Z,14.63
2022-09-12T02:54:49.041Z,14.43
2022-09-12T02:57:22.422Z,14.55
2022-09-12T02:59:51.710Z,14.65
2022-09-12T03:02:29.453Z,14.71
2022-09-12T03:05:14.548Z,14.64
2022-09-12T03:08:02.052Z,14.64
2022-09-12T03:10:34.284Z,14.66
2022-09-12T03:13:10.065Z,14.67
2022-09-12T03:15:44.922Z,14.62
2022-09-12T03:18:21.471Z,14.52
2022-09-12T03:20:54.997Z,14.58
2022-09-12T03:23:27.450Z,14.54
2022-09-12T03:25:58.558Z,14.66
2022-09-12T03:28:26.900Z,14.54
2022-09-12T03:30:56.509Z,14.52
2022-09-12T03:33:26.155Z,14.52
2022-09-12T03:35:54.349Z,14.61
2022-09-12T03:38:22.068Z,14.55
2022-09-12T03:40:54.543Z,14.47
2022-09-12T03:43:22.712Z,14.46
2022-09-12T03:45:52.130Z,14.35
2022-09-12T03:48:19.921Z,14.33
2022-09-12T03:50:49.015Z,14.40
2022-09-12T03:53:17.491Z,14.48
2022-09-12T03:55:45.456Z,14.54
2022-09-12T03:58:13.202Z,14.33
2022-09-12T04:00:42.746Z,14.36
2022-09-12T04:03:10.482Z,14.44
2022-09-12T04:05:38.232Z,14.41
2022-09-12T04:08:07.464Z,14.20
2022-09-12T04:10:35.230Z,14.16
2022-09-12T04:13:02.945Z,14.11
2022-09-12T04:15:30.670Z,14.15
2022-09-12T04:18:02.432Z,14.07
2022-09-12T04:20:32.896Z,14.05
2022-09-12T04:23:00.836Z,14.00
2022-09-12T04:25:31.304Z,14.07
2022-09-12T04:27:59.056Z,14.20
2022-09-12T04:30:26.814Z,14.38
2022-09-12T04:32:54.624Z,14.32
2022-09-12T04:35:22.562Z,14.19
2022-09-12T04:37:50.309Z,14.39
2022-09-12T04:40:18.961Z,14.43
2022-09-12T04:42:48.170Z,14.27
2022-09-12T04:45:16.824Z,14.22
2022-09-12T04:47:46.438Z,14.07
2022-09-12T04:50:14.878Z,14.02
2022-09-12T04:52:42.682Z,14.16
2022-09-12T04:55:10.673Z,14.08
2022-09-12T04:57:38.581Z,14.31
2022-09-12T05:00:09.386Z,14.48
2022-09-12T05:02:37.231Z,14.37
2022-09-12T05:05:05.533Z,14.13
2022-09-12T05:07:33.434Z,14.29
2022-09-12T05:10:01.262Z,14.20
2022-09-12T05:12:29.079Z,14.24
2022-09-12T05:14:56.827Z,14.22
2022-09-12T05:17:26.117Z,14.44
2022-09-12T05:19:53.965Z,14.56
2022-09-12T05:22:21.762Z,14.56
2022-09-12T05:24:50.762Z,14.74
2022-09-12T05:27:18.821Z,14.68
2022-09-12T05:29:46.545Z,14.89
2022-09-12T05:32:14.395Z,14.87
2022-09-12T05:34:43.605Z,15.09
2022-09-12T05:37:11.375Z,15.27
2022-09-12T05:39:39.150Z,15.32
2022-09-12T05:42:07.253Z,15.62
2022-09-12T05:44:34.987Z,15.73
2022-09-12T05:47:02.750Z,15.86
2022-09-12T05:49:30.619Z,16.03
2022-09-12T05:51:59.738Z,16.24
2022-09-12T05:54:31.304Z,16.42
2022-09-12T05:56:59.994Z,16.57
2022-09-12T05:59:28.458Z,16.61
2022-09-12T06:01:56.352Z,16.70
2022-09-12T06:04:24.937Z,16.86
2022-09-12T06:06:52.668Z,16.98
2022-09-12T06:09:21.907Z,17.03
2022-09-12T06:11:49.711Z,16.80
2022-09-12T06:14:19.501Z,16.96
2022-09-12T06:16:48.581Z,16.93
2022-09-12T06:19:18.432Z,17.22
2022-09-12T06:21:47.489Z,17.52
2022-09-12T06:24:15.248Z,17.50
2022-09-12T06:26:44.509Z,17.60
2022-09-12T06:29:13.355Z,17.95
2022-09-12T06:31:42.827Z,18.12
2022-09-12T06:34:12.019Z,18.51
2022-09-12T06:36:41.349Z,18.35
2022-09-12T06:39:11.754Z,18.73
2022-09-12T06:41:43.729Z,18.94
2022-09-12T06:44:14.811Z,19.10
2022-09-12T06:46:42.688Z,19.39
2022-09-12T06:49:10.896Z,19.38
2022-09-12T06:51:38.755Z,19.68
2022-09-12T06:54:06.771Z,19.96
2022-09-12T06:56:34.646Z,19.71
2022-09-12T06:59:02.411Z,19.74
2022-09-12T07:01:32.506Z,19.94
2022-09-12T07:04:02.211Z,19.86
2022-09-12T07:06:32.534Z,19.89
2022-09-12T07:09:00.987Z,19.94
2022-09-12T07:11:31.755Z,20.23
2022-09-12T07:14:00.568Z,20.20
2022-09-12T07:16:28.846Z,20.30
2022-09-12T07:18:59.570Z,20.55
2022-09-12T07:21:27.785Z,20.67
2022-09-12T07:23:57.793Z,20.51
2022-09-12T07:26:26.282Z,20.60
2022-09-12T07:29:07.969Z,20.82
2022-09-12T07:31:43.461Z,20.98
2022-09-12T07:34:12.889Z,21.15
2022-09-12T07:36:40.656Z,21.04
2022-09-12T07:39:08.616Z,20.93
2022-09-12T07:41:36.430Z,21.35
2022-09-12T07:44:06.607Z,21.43
2022-09-12T07:46:35.378Z,21.68
2022-09-12T07:49:03.516Z,21.69
2022-09-12T07:51:32.739Z,21.92
2022-09-12T07:54:00.657Z,21.85
2022-09-12T07:56:32.694Z,22.20
2022-09-12T07:59:02.673Z,22.64
2022-09-12T08:01:31.006Z,22.71
2022-09-12T08:04:00.239Z,23.02
2022-09-12T08:06:30.292Z,22.98
2022-09-12T08:09:00.209Z,22.86
2022-09-12T08:11:29.622Z,22.66
2022-09-12T08:13:58.362Z,22.56
2022-09-12T08:16:27.893Z,22.74
2022-09-12T08:18:55.678Z,22.49
2022-09-12T08:21:24.861Z,22.65
2022-09-12T08:23:54.626Z,22.68
2022-09-12T08:26:24.604Z,23.06
2022-09-12T08:28:53.235Z,23.23
2022-09-12T08:31:22.518Z,23.27
2022-09-12T08:33:50.441Z,23.69
2022-09-12T08:36:20.320Z,23.56
2022-09-12T08:38:49.390Z,23.22
2022-09-12T08:41:25.598Z,23.30
2022-09-12T08:44:27.140Z,23.37
2022-09-12T08:47:07.824Z,23.18
2022-09-12T08:49:42.521Z,23.36
2022-09-12T08:52:15.121Z,23.08
2022-09-12T08:54:45.339Z,23.63
2022-09-12T08:57:16.246Z,23.45
2022-09-12T08:59:45.961Z,23.78
2022-09-12T09:02:56.044Z,23.82
2022-09-12T09:05:29.565Z,23.71
2022-09-12T09:08:10.647Z,24.02
2022-09-12T09:10:46.255Z,24.07
2022-09-12T09:13:41.489Z,24.14
2022-09-12T09:16:15.466Z,24.17
2022-09-12T09:18:45.189Z,24.17
2022-09-12T09:21:20.294Z,24.19
2022-09-12T09:23:51.569Z,24.34
2022-09-12T09:26:26.551Z,24.23
2022-09-12T09:29:00.829Z,24.35
2022-09-12T09:31:33.966Z,23.81
2022-09-12T09:34:01.748Z,23.62
2022-09-12T09:36:37.634Z,24.10
2022-09-12T09:39:07.182Z,24.15
2022-09-12T09:41:43.705Z,23.65
2022-09-12T09:44:12.896Z,23.60
2022-09-12T09:46:40.632Z,23.27
2022-09-12T09:49:11.392Z,23.44
2022-09-12T09:51:41.222Z,23.35
2022-09-12T09:54:16.980Z,23.64
2022-09-12T09:56:45.759Z,23.87
2022-09-12T09:59:17.761Z,23.63
2022-09-12T10:01:47.620Z,23.79
2022-09-12T10:04:19.933Z,24.19
2022-09-12T10:06:47.903Z,24.16
2022-09-12T10:09:22.029Z,24.60
2022-09-12T10:11:51.149Z,25.06
2022-09-12T10:14:34.958Z,24.71
2022-09-12T10:17:04.553Z,24.77
2022-09-12T10:19:37.048Z,24.65
2022-09-12T10:22:06.052Z,24.27
2022-09-12T10:24:36.642Z,24.48
2022-09-12T10:27:10.061Z,25.19
2022-09-12T10:29:48.449Z,25.50
2022-09-12T10:32:28.591Z,25.75
2022-09-12T10:35:00.626Z,25.80
2022-09-12T10:37:32.496Z,25.70
2022-09-12T10:40:01.492Z,25.97
2022-09-12T10:42:50.322Z,25.98
2022-09-12T10:45:26.856Z,26.51
2022-09-12T10:47:55.814Z,26.26
2022-09-12T10:50:29.693Z,26.42
2022-09-12T10:53:14.759Z,27.39
2022-09-12T10:55:45.156Z,27.73
2022-09-12T10:58:24.684Z,27.50
2022-09-12T11:00:58.916Z,28.38
2022-09-12T11:03:41.018Z,28.78
2022-09-12T11:06:10.697Z,28.65
2022-09-12T11:08:53.359Z,29.55
2022-09-12T11:11:47.226Z,29.55
2022-09-12T11:14:28.248Z,29.94
2022-09-12T11:17:02.727Z,29.43
2022-09-12T11:19:55.053Z,30.26
2022-09-12T11:22:37.957Z,30.54
2022-09-12T11:25:24.470Z,31.36
2022-09-12T11:28:02.277Z,31.26
2022-09-12T11:30:37.462Z,31.76
2022-09-12T11:33:18.361Z,31.25
2022-09-12T11:35:53.055Z,31.16
2022-09-12T11:38:43.046Z,30.70
2022-09-12T11:41:13.669Z,29.63
2022-09-12T11:43:44.185Z,28.62
2022-09-12T11:46:18.164Z,30.50
2022-09-12T11:48:50.302Z,31.03
2022-09-12T11:51:20.808Z,30.81
2022-09-12T11:54:01.024Z,31.19
2022-09-12T11:56:28.828Z,30.40
2022-09-12T11:59:02.205Z,30.13
2022-09-12T12:01:37.754Z,31.58
2022-09-12T12:04:13.104Z,31.27
2022-09-12T12:06:48.977Z,30.65
2022-09-12T12:09:17.677Z,29.98
2022-09-12T12:11:49.412Z,32.46
2022-09-12T12:14:19.436Z,31.72
2022-09-12T12:16:47.548Z,31.61
2022-09-12T12:19:34.706Z,30.55
2022-09-12T12:22:10.191Z,30.72
2022-09-12T12:25:01.345Z,32.43
2022-09-12T12:27:47.714Z,31.32
2022-09-12T12:31:01.185Z,31.62
2022-09-12T12:34:02.009Z,33.08
2022-09-12T12:36:40.217Z,33.35
2022-09-12T12:40:00.901Z,34.01
2022-09-12T12:43:22.602Z,35.42
2022-09-12T12:46:09.528Z,34.66
2022-09-12T12:48:55.899Z,33.52
2022-09-12T12:51:36.383Z,32.54
2022-09-12T12:54:08.737Z,33.94
2022-09-12T12:56:41.029Z,35.02
2022-09-12T12:59:19.105Z,34.79
2022-09-12T13:01:54.190Z,34.57
2022-09-12T13:04:24.653Z,35.07
2022-09-12T13:07:03.523Z,35.86
2022-09-12T13:09:35.789Z,35.26
2022-09-12T13:12:06.381Z,35.97
2022-09-12T13:14:49.385Z,36.47
2022-09-12T13:17:22.774Z,35.35
2022-09-12T13:20:00.816Z,36.37
2022-09-12T13:22:44.819Z,36.03
2022-09-12T13:25:31.024Z,35.55
2022-09-12T13:28:04.068Z,34.96
2022-09-12T13:30:33.794Z,36.33
2022-09-12T13:33:10.339Z,36.25
2022-09-12T13:35:44.575Z,35.36
2022-09-12T13:38:18.029Z,35.40
2022-09-12T13:40:59.098Z,36.56
2022-09-12T13:43:37.182Z,35.67
2022-09-12T13:46:05.087Z,36.26
2022-09-12T13:48:33.219Z,35.64
2022-09-12T13:51:02.671Z,35.78
2022-09-12T13:53:36.692Z,35.51
2022-09-12T13:56:04.763Z,35.64
2022-09-12T13:58:34.528Z,35.12
2022-09-12T14:01:05.673Z,34.55
2022-09-12T14:03:54.749Z,34.91
2022-09-12T14:06:27.601Z,32.82
2022-09-12T14:08:58.545Z,32.66
2022-09-12T14:11:28.200Z,33.18
2022-09-12T14:13:56.296Z,32.83
2022-09-12T14:16:28.947Z,33.29
2022-09-12T14:18:58.916Z,34.47
2022-09-12T14:21:35.697Z,32.79
2022-09-12T14:24:08.417Z,33.51
2022-09-12T14:26:37.661Z,33.56
2022-09-12T14:29:07.056Z,33.74
2022-09-12T14:31:36.973Z,34.41
2022-09-12T14:34:12.715Z,33.95
2022-09-12T14:36:45.793Z,31.71
2022-09-12T14:39:22.894Z,32.59
2022-09-12T14:41:51.326Z,31.62
2022-09-12T14:44:21.502Z,31.40
2022-09-12T14:46:49.574Z,31.65
2022-09-12T14:49:19.369Z,31.64
2022-09-12T14:51:55.524Z,31.07
2022-09-12T14:54:39.386Z,30.52
2022-09-12T14:57:09.246Z,30.91
2022-09-12T14:59:39.727Z,30.45
2022-09-12T15:02:22.236Z,29.90
2022-09-12T15:04:51.904Z,29.55
2022-09-12T15:07:29.672Z,29.21
2022-09-12T15:10:00.024Z,28.69
2022-09-12T15:12:28.358Z,28.24
2022-09-12T15:14:59.397Z,28.07
2022-09-12T15:17:27.147Z,28.01
2022-09-12T15:19:54.962Z,28.38
2022-09-12T15:22:26.072Z,29.03
2022-09-12T15:24:53.790Z,28.93
2022-09-12T15:27:23.906Z,28.91
2022-09-12T15:29:51.709Z,28.65
2022-09-12T15:32:24.321Z,28.13
2022-09-12T15:34:52.693Z,27.77
2022-09-12T15:37:21.289Z,27.56
2022-09-12T15:39:49.151Z,27.18
2022-09-12T15:42:17.961Z,27.30
2022-09-12T15:44:47.053Z,27.44
2022-09-12T15:47:15.029Z,27.35
2022-09-12T15:49:42.784Z,27.26
2022-09-12T15:52:15.554Z,27.02
2022-09-12T15:54:43.740Z,27.20
2022-09-12T15:57:11.490Z,27.46
2022-09-12T15:59:39.209Z,27.26
2022-09-12T16:02:10.418Z,27.37
2022-09-12T16:04:38.149Z,27.16
2022-09-12T16:07:06.038Z,27.36
2022-09-12T16:09:34.350Z,26.99
2022-09-12T16:12:02.522Z,27.11
2022-09-12T16:14:30.931Z,27.08
2022-09-12T16:16:59.020Z,26.95
2022-09-12T16:19:28.300Z,26.84
2022-09-12T16:21:56.037Z,26.79
2022-09-12T16:24:23.910Z,26.86
2022-09-12T16:26:51.621Z,26.96
2022-09-12T16:29:19.405Z,27.03
2022-09-12T16:31:47.229Z,26.98
2022-09-12T16:34:14.998Z,26.85
2022-09-12T16:36:45.203Z,26.74
2022-09-12T16:39:12.950Z,26.45
2022-09-12T16:41:42.161Z,26.55
2022-09-12T16:44:10.183Z,26.43
2022-09-12T16:46:37.961Z,26.53
2022-09-12T16:49:06.402Z,26.66
2022-09-12T16:51:35.830Z,26.69
2022-09-12T16:54:05.459Z,26.66
2022-09-12T16:56:33.270Z,26.56
2022-09-12T16:59:00.974Z,26.50
2022-09-12T17:01:28.751Z,26.59
2022-09-12T17:03:57.935Z,26.29
2022-09-12T17:06:26.554Z,26.29
2022-09-12T17:08:56.113Z,26.52
2022-09-12T17:11:27.297Z,26.73
2022-09-12T17:14:11.746Z,27.52
2022-09-12T17:16:41.757Z,28.05
2022-09-12T17:19:12.181Z,27.97
2022-09-12T17:21:39.951Z,28.25
2022-09-12T17:24:07.860Z,27.93
2022-09-12T17:26:37.040Z,27.43
2022-09-12T17:29:05.074Z,27.07
2022-09-12T17:31:33.402Z,26.83
2022-09-12T17:34:01.762Z,26.62
2022-09-12T17:36:31.875Z,26.33
2022-09-12T17:39:00.243Z,26.12
2022-09-12T17:41:29.531Z,25.99
2022-09-12T17:44:00.135Z,25.93
2022-09-12T17:46:34.876Z,25.77
2022-09-12T17:49:04.070Z,25.51
2022-09-12T17:51:32.193Z,25.34
2022-09-12T17:54:01.725Z,25.24
2022-09-12T17:56:30.768Z,25.12
2022-09-12T17:59:00.574Z,24.92
2022-09-12T18:01:47.462Z,24.83
2022-09-12T18:04:15.740Z,24.70
2022-09-12T18:06:48.015Z,24.37
2022-09-12T18:09:17.682Z,24.13
2022-09-12T18:11:45.850Z,23.77
2022-09-12T18:14:15.389Z,23.66
2022-09-12T18:16:43.267Z,23.41
2022-09-12T18:19:11.218Z,23.17
2022-09-12T18:21:39.329Z,22.96
2022-09-12T18:24:07.488Z,22.94
2022-09-12T18:26:35.336Z,22.87
2022-09-12T18:29:03.074Z,22.68
2022-09-12T18:31:32.368Z,22.45
2022-09-12T18:34:01.041Z,22.35
2022-09-12T18:36:29.092Z,22.23
2022-09-12T18:38:58.670Z,22.24
2022-09-12T18:41:28.765Z,22.19
2022-09-12T18:43:57.503Z,22.12
2022-09-12T18:46:25.731Z,21.95
2022-09-12T18:48:57.679Z,21.79
2022-09-12T18:51:31.126Z,21.66
2022-09-12T18:54:00.222Z,21.53
2022-09-12T18:56:32.176Z,21.35
2022-09-12T18:59:01.043Z,21.25
2022-09-12T19:01:30.084Z,21.30
2022-09-12T19:03:59.948Z,21.42
2022-09-12T19:06:29.511Z,21.37
2022-09-12T19:08:58.704Z,21.24
2022-09-12T19:11:27.902Z,21.05
2022-09-12T19:13:56.201Z,20.90
2022-09-12T19:16:25.638Z,20.83
2022-09-12T19:18:54.522Z,20.96
2022-09-12T19:21:25.443Z,20.99
2022-09-12T19:23:54.117Z,20.84
2022-09-12T19:26:22.278Z,20.82
2022-09-12T19:28:50.608Z,20.85
2022-09-12T19:31:20.215Z,20.95
2022-09-12T19:33:49.076Z,20.99
2022-09-12T19:36:43.360Z,20.93
2022-09-12T19:39:08.454Z,20.68
2022-09-12T19:41:36.826Z,20.69
2022-09-12T19:44:04.717Z,20.80
2022-09-12T19:46:32.553Z,20.98
2022-09-12T19:49:00.344Z,21.01
2022-09-12T19:51:28.144Z,20.92
2022-09-12T19:53:56.015Z,20.76
2022-09-12T19:56:25.148Z,20.55
2022-09-12T19:58:56.392Z,20.48
2022-09-12T20:01:28.057Z,20.42
2022-09-12T20:03:56.802Z,20.45
2022-09-12T20:06:24.728Z,20.50
2022-09-12T20:08:52.519Z,20.45
2022-09-12T20:11:21.872Z,20.64
2022-09-12T20:13:51.118Z,20.61
2022-09-12T20:16:21.970Z,20.52
2022-09-12T20:18:54.264Z,20.51
2022-09-12T20:21:25.037Z,20.52
2022-09-12T20:23:52.854Z,20.42
2022-09-12T20:26:20.780Z,20.50
2022-09-12T20:28:48.912Z,20.53
2022-09-12T20:31:18.763Z,20.49
2022-09-12T20:33:51.102Z,20.49
2022-09-12T20:36:21.436Z,20.62
2022-09-12T20:38:50.736Z,20.55
2022-09-12T20:41:19.299Z,20.59
2022-09-12T20:43:51.022Z,20.69
2022-09-12T20:46:22.093Z,20.84
2022-09-12T20:48:50.856Z,20.90
2022-09-12T20:51:19.045Z,21.00
2022-09-12T20:53:47.133Z,21.25
2022-09-12T20:56:15.229Z,21.31
2022-09-12T20:58:44.363Z,21.46
2022-09-12T21:01:13.066Z,21.57
2022-09-12T21:03:43.137Z,21.65
2022-09-12T21:06:12.452Z,21.69
2022-09-12T21:08:40.432Z,21.77
2022-09-12T21:11:08.334Z,21.81
2022-09-12T21:13:36.596Z,21.73
2022-09-12T21:16:06.006Z,21.82
2022-09-12T21:18:34.636Z,21.84
2022-09-12T21:21:04.726Z,21.86
2022-09-12T21:23:33.491Z,21.93
2022-09-12T21:26:02.110Z,21.99
2022-09-12T21:28:30.159Z,21.96
2022-09-12T21:30:57.972Z,21.96
2022-09-12T21:33:25.782Z,22.01
2022-09-12T21:35:53.498Z,22.02
2022-09-12T21:38:22.605Z,22.04
2022-09-12T21:40:50.363Z,22.07
2022-09-12T21:43:18.284Z,22.04
2022-09-12T21:45:46.084Z,22.08
2022-09-12T21:48:13.793Z,22.14
2022-09-12T21:50:41.485Z,21.97
2022-09-12T21:53:09.194Z,22.10
2022-09-12T21:55:38.321Z,22.07
2022-09-12T21:58:06.094Z,22.14
2022-09-12T22:00:33.908Z,22.01
2022-09-12T22:03:01.693Z,22.06
2022-09-12T22:05:32.558Z,22.16
2022-09-12T22:08:00.809Z,22.14
2022-09-12T22:10:28.794Z,22.15
2022-09-12T22:12:57.938Z,22.10
2022-09-12T22:15:44.792Z,22.03
2022-09-12T22:18:12.597Z,22.10
2022-09-12T22:20:40.308Z,22.02
2022-09-12T22:23:25.529Z,22.11
2022-09-12T22:25:54.872Z,22.05
2022-09-12T22:28:24.455Z,22.00
2022-09-12T22:30:54.375Z,22.00
2022-09-12T22:33:22.200Z,22.03
2022-09-12T22:35:50.095Z,22.05
2022-09-12T22:38:17.815Z,22.04
2022-09-12T22:40:45.560Z,22.01
2022-09-12T22:43:13.432Z,21.95
2022-09-12T22:45:43.153Z,22.02
2022-09-12T22:48:10.941Z,22.06
2022-09-12T22:50:38.753Z,22.07
2022-09-12T22:53:06.506Z,22.06
2022-09-12T22:55:34.282Z,21.95
2022-09-12T22:58:03.566Z,21.91
2022-09-12T23:00:31.327Z,21.90
2022-09-12T23:03:01.844Z,21.69
2022-09-12T23:05:29.891Z,21.56
2022-09-12T23:07:57.644Z,21.60
2022-09-12T23:10:25.990Z,21.53
2022-09-12T23:12:53.790Z,21.44
2022-09-12T23:15:21.532Z,21.29
2022-09-12T23:17:49.318Z,21.26
2022-09-12T23:20:18.593Z,21.26
2022-09-12T23:22:46.339Z,21.29
2022-09-12T23:25:14.835Z,21.32
2022-09-12T23:27:42.795Z,21.20
2022-09-12T23:30:12.106Z,21.26
2022-09-12T23:32:39.941Z,21.14
2022-09-12T23:35:08.062Z,21.21
2022-09-12T23:37:37.158Z,21.33
2022-09-12T23:40:05.603Z,21.20
2022-09-12T23:42:33.418Z,21.44
2022-09-12T23:45:01.172Z,21.53
2022-09-12T23:47:28.981Z,21.56
2022-09-12T23:49:56.753Z,21.48
2022-09-12T23:52:24.562Z,21.52
2022-09-12T23:54:53.646Z,21.63
2022-09-12T23:57:22.122Z,21.71
2022-09-12T23:59:49.870Z,21.71
